createdAt,value
2023-08-06T00:01:51.929Z,64.65
2023-08-06T00:04:26.000Z,64.59
2023-08-06T00:06:58.554Z,64.90
2023-08-06T00:09:31.370Z,64.89
2023-08-06T00:12:04.744Z,64.59
2023-08-06T00:14:39.117Z,64.95
2023-08-06T00:17:12.008Z,65.14
2023-08-06T00:19:44.764Z,65.14
2023-08-06T00:22:17.430Z,64.40
2023-08-06T00:24:50.197Z,64.87
2023-08-06T00:27:23.322Z,65.12
2023-08-06T00:29:57.365Z,65.20
2023-08-06T00:32:30.239Z,65.09
2023-08-06T00:35:04.319Z,65.30
2023-08-06T00:37:37.135Z,65.42
2023-08-06T00:40:10.414Z,65.34
2023-08-06T00:42:45.323Z,65.35
2023-08-06T00:45:19.688Z,65.56
2023-08-06T00:47:52.393Z,65.62
2023-08-06T00:50:25.313Z,65.06
2023-08-06T00:52:58.411Z,64.90
2023-08-06T00:55:31.582Z,65.15
2023-08-06T00:58:04.584Z,64.88
2023-08-06T01:00:39.164Z,65.14
2023-08-06T01:03:12.181Z,65.34
2023-08-06T01:05:45.139Z,64.97
2023-08-06T01:08:38.465Z,65.26
2023-08-06T01:11:35.543Z,65.33
2023-08-06T01:14:16.626Z,65.57
2023-08-06T01:16:52.973Z,64.83
2023-08-06T01:19:27.735Z,64.90
2023-08-06T01:22:02.089Z,64.98
2023-08-06T01:24:35.348Z,65.00
2023-08-06T01:27:13.542Z,65.21
2023-08-06T01:29:53.273Z,65.17
2023-08-06T01:32:28.508Z,65.20
2023-08-06T01:35:03.350Z,65.34
2023-08-06T01:37:39.033Z,64.96
2023-08-06T01:40:12.905Z,64.90
2023-08-06T01:42:45.907Z,65.27
2023-08-06T01:45:20.020Z,65.48
2023-08-06T01:47:53.252Z,65.49
2023-08-06T01:50:26.368Z,65.70
2023-08-06T01:53:00.566Z,65.33
2023-08-06T01:55:33.652Z,65.36
2023-08-06T01:58:06.575Z,65.09
2023-08-06T02:00:39.901Z,65.01
2023-08-06T02:03:12.970Z,65.20
2023-08-06T02:05:47.580Z,65.32
2023-08-06T02:08:21.915Z,65.42
2023-08-06T02:10:55.110Z,65.39
2023-08-06T02:13:28.281Z,65.24
2023-08-06T02:16:01.364Z,65.84
2023-08-06T02:18:34.437Z,65.29
2023-08-06T02:21:07.110Z,65.22
2023-08-06T02:23:41.493Z,65.46
2023-08-06T02:26:14.485Z,65.52
2023-08-06T02:28:47.531Z,65.55
2023-08-06T02:31:21.887Z,65.89
2023-08-06T02:33:55.065Z,66.10
2023-08-06T02:36:30.862Z,65.92
2023-08-06T02:39:07.797Z,65.96
2023-08-06T02:41:41.885Z,66.43
2023-08-06T02:44:14.791Z,66.47
2023-08-06T02:46:48.004Z,66.29
2023-08-06T02:49:21.112Z,66.35
2023-08-06T02:51:54.860Z,66.18
2023-08-06T02:54:29.589Z,66.15
2023-08-06T02:57:02.542Z,66.26
2023-08-06T02:59:38.506Z,66.21
2023-08-06T03:02:16.264Z,66.01
2023-08-06T03:05:13.116Z,66.65
2023-08-06T03:07:50.440Z,67.30
2023-08-06T03:10:33.120Z,67.09
2023-08-06T03:13:09.359Z,67.77
2023-08-06T03:15:42.209Z,67.42
2023-08-06T03:18:17.068Z,67.14
2023-08-06T03:20:50.478Z,67.28
2023-08-06T03:23:24.045Z,67.49
2023-08-06T03:25:58.253Z,67.34
2023-08-06T03:28:31.291Z,67.11
2023-08-06T03:31:05.052Z,67.47
2023-08-06T03:33:46.856Z,67.76
2023-08-06T03:36:22.928Z,67.25
2023-08-06T03:38:56.878Z,67.45
2023-08-06T03:41:31.106Z,67.48
2023-08-06T03:44:05.136Z,67.58
2023-08-06T03:46:38.621Z,67.70
2023-08-06T03:49:13.681Z,67.68
2023-08-06T03:51:48.072Z,68.34
2023-08-06T03:54:21.028Z,67.78
2023-08-06T03:56:55.251Z,68.17
2023-08-06T03:59:28.133Z,68.67
2023-08-06T04:02:02.827Z,68.00
2023-08-06T04:04:35.626Z,68.24
2023-08-06T04:07:08.497Z,68.02
2023-08-06T04:09:57.600Z,68.03
2023-08-06T04:12:33.797Z,68.77
2023-08-06T04:15:08.084Z,69.12
2023-08-06T04:17:41.390Z,69.17
2023-08-06T04:20:14.158Z,69.07
2023-08-06T04:22:47.051Z,69.67
2023-08-06T04:25:22.197Z,69.64
2023-08-06T04:27:56.557Z,69.75
2023-08-06T04:30:30.483Z,69.90
2023-08-06T04:33:03.837Z,70.46
2023-08-06T04:35:36.839Z,70.29
2023-08-06T04:38:09.688Z,70.21
2023-08-06T04:40:43.311Z,69.91
2023-08-06T04:43:17.613Z,69.81
2023-08-06T04:45:51.699Z,69.87
2023-08-06T04:48:25.059Z,69.83
2023-08-06T04:50:57.925Z,70.25
2023-08-06T04:53:30.754Z,70.13
2023-08-06T04:56:03.672Z,70.38
2023-08-06T04:58:40.427Z,70.43
2023-08-06T05:01:13.548Z,70.41
2023-08-06T05:03:49.016Z,70.59
2023-08-06T05:06:21.926Z,70.80
2023-08-06T05:08:54.835Z,71.01
2023-08-06T05:11:27.719Z,71.34
2023-08-06T05:14:01.966Z,71.82
2023-08-06T05:16:35.020Z,71.19
2023-08-06T05:19:08.123Z,71.46
2023-08-06T05:21:41.220Z,71.63
2023-08-06T05:24:14.311Z,71.87
2023-08-06T05:26:48.900Z,71.94
2023-08-06T05:29:23.297Z,71.71
2023-08-06T05:31:56.504Z,72.17
2023-08-06T05:34:29.732Z,71.84
2023-08-06T05:37:02.656Z,72.22
2023-08-06T05:39:35.495Z,72.52
2023-08-06T05:42:09.331Z,72.69
2023-08-06T05:44:43.467Z,72.41
2023-08-06T05:47:16.551Z,73.20
2023-08-06T05:49:49.480Z,72.44
2023-08-06T05:52:25.494Z,72.33
2023-08-06T05:54:58.529Z,73.06
2023-08-06T05:57:31.166Z,72.67
2023-08-06T06:00:07.372Z,72.94
2023-08-06T06:02:45.566Z,72.36
2023-08-06T06:05:18.171Z,73.33
2023-08-06T06:07:51.067Z,72.49
2023-08-06T06:10:23.870Z,72.58
2023-08-06T06:12:56.692Z,72.78
2023-08-06T06:15:31.216Z,72.78
2023-08-06T06:18:04.348Z,73.04
2023-08-06T06:20:37.195Z,72.95
2023-08-06T06:23:10.161Z,73.18
2023-08-06T06:25:47.130Z,73.40
2023-08-06T06:28:20.592Z,73.02
2023-08-06T06:30:55.710Z,72.70
2023-08-06T06:33:28.949Z,73.13
2023-08-06T06:36:04.714Z,73.80
2023-08-06T06:38:38.229Z,73.81
2023-08-06T06:41:11.104Z,73.53
2023-08-06T06:43:44.823Z,73.01
2023-08-06T06:46:19.233Z,73.43
2023-08-06T06:48:52.334Z,73.20
2023-08-06T06:51:25.238Z,73.36
2023-08-06T06:54:00.480Z,72.46
2023-08-06T06:56:33.706Z,73.51
2023-08-06T06:59:06.943Z,73.94
2023-08-06T07:01:41.317Z,72.79
2023-08-06T07:04:14.295Z,70.42
2023-08-06T07:06:47.137Z,70.22
2023-08-06T07:09:19.971Z,70.11
2023-08-06T07:11:53.260Z,70.30
2023-08-06T07:14:27.902Z,69.67
2023-08-06T07:17:02.465Z,69.96
2023-08-06T07:19:35.272Z,69.65
2023-08-06T07:22:08.568Z,70.53
2023-08-06T07:24:41.577Z,69.96
2023-08-06T07:27:15.355Z,69.59
2023-08-06T07:29:49.175Z,69.56
2023-08-06T07:32:23.850Z,69.77
2023-08-06T07:35:00.596Z,69.07
2023-08-06T07:37:33.600Z,69.13
2023-08-06T07:40:09.806Z,69.02
2023-08-06T07:42:42.708Z,69.10
2023-08-06T07:45:16.655Z,69.00
2023-08-06T07:47:51.028Z,69.22
2023-08-06T07:50:23.923Z,68.74
2023-08-06T07:52:56.697Z,69.69
2023-08-06T07:55:29.634Z,69.32
2023-08-06T07:58:02.374Z,68.87
2023-08-06T08:00:35.354Z,68.46
2023-08-06T08:03:09.810Z,67.99
2023-08-06T08:05:43.185Z,67.95
2023-08-06T08:08:18.391Z,68.19
2023-08-06T08:10:51.228Z,68.81
2023-08-06T08:13:24.215Z,68.20
2023-08-06T08:15:59.198Z,68.00
2023-08-06T08:18:34.434Z,67.43
2023-08-06T08:21:07.892Z,68.59
2023-08-06T08:23:42.957Z,67.74
2023-08-06T08:26:15.793Z,67.41
2023-08-06T08:28:49.149Z,67.73
2023-08-06T08:31:22.235Z,67.85
2023-08-06T08:33:58.548Z,67.45
2023-08-06T08:36:32.973Z,67.05
2023-08-06T08:39:06.258Z,66.21
2023-08-06T08:41:42.262Z,65.87
2023-08-06T08:44:18.403Z,66.25
2023-08-06T08:46:52.954Z,66.31
2023-08-06T08:49:29.907Z,66.35
2023-08-06T08:52:06.710Z,66.58
2023-08-06T08:54:40.942Z,65.41
2023-08-06T08:57:15.131Z,64.96
2023-08-06T08:59:48.508Z,64.72
2023-08-06T09:02:25.453Z,65.15
2023-08-06T09:05:03.902Z,65.72
2023-08-06T09:07:43.733Z,65.17
2023-08-06T09:10:21.164Z,65.10
2023-08-06T09:12:55.346Z,65.22
2023-08-06T09:15:29.216Z,65.14
2023-08-06T09:18:02.341Z,64.68
2023-08-06T09:20:36.739Z,64.94
2023-08-06T09:23:11.364Z,64.21
2023-08-06T09:25:44.447Z,62.95
2023-08-06T09:28:17.282Z,62.53
2023-08-06T09:30:50.703Z,63.44
2023-08-06T09:33:27.880Z,63.16
2023-08-06T09:36:09.954Z,62.26
2023-08-06T09:38:43.171Z,63.21
2023-08-06T09:41:28.699Z,62.05
2023-08-06T09:44:02.612Z,61.81
2023-08-06T09:46:35.459Z,61.39
2023-08-06T09:49:09.496Z,61.59
2023-08-06T09:51:46.049Z,62.01
2023-08-06T09:54:27.420Z,61.73
2023-08-06T09:57:01.973Z,61.93
2023-08-06T09:59:35.171Z,60.79
2023-08-06T10:02:15.190Z,61.63
2023-08-06T10:04:55.070Z,61.27
2023-08-06T10:07:32.210Z,61.03
2023-08-06T10:10:05.954Z,59.33
2023-08-06T10:12:43.156Z,60.68
2023-08-06T10:15:19.716Z,60.26
2023-08-06T10:17:56.859Z,61.65
2023-08-06T10:20:35.369Z,60.60
2023-08-06T10:23:09.698Z,61.41
2023-08-06T10:25:43.864Z,61.77
2023-08-06T10:28:19.112Z,60.68
2023-08-06T10:30:53.358Z,61.19
2023-08-06T10:33:26.271Z,60.50
2023-08-06T10:36:05.849Z,59.25
2023-08-06T10:38:47.796Z,58.71
2023-08-06T10:41:25.979Z,59.03
2023-08-06T10:44:09.633Z,58.36
2023-08-06T10:46:42.602Z,58.45
2023-08-06T10:49:16.301Z,57.97
2023-08-06T10:51:51.800Z,57.82
2023-08-06T10:54:26.451Z,56.74
2023-08-06T10:56:59.579Z,58.61
2023-08-06T10:59:32.374Z,57.72
2023-08-06T11:02:05.718Z,57.23
2023-08-06T11:04:38.674Z,58.13
2023-08-06T11:07:12.012Z,58.36
2023-08-06T11:09:46.514Z,58.37
2023-08-06T11:12:20.563Z,54.28
2023-08-06T11:14:53.433Z,57.62
2023-08-06T11:17:26.944Z,55.59
2023-08-06T11:20:01.178Z,54.46
2023-08-06T11:22:34.121Z,55.40
2023-08-06T11:25:09.066Z,54.47
2023-08-06T11:27:41.839Z,54.60
2023-08-06T11:30:14.626Z,54.08
2023-08-06T11:32:48.256Z,54.87
2023-08-06T11:35:21.113Z,54.92
2023-08-06T11:37:54.015Z,55.00
2023-08-06T11:40:28.075Z,55.25
2023-08-06T11:43:01.247Z,55.41
2023-08-06T11:45:37.361Z,55.32
2023-08-06T11:48:10.551Z,55.04
2023-08-06T11:50:43.462Z,54.57
2023-08-06T11:53:17.036Z,54.62
2023-08-06T11:55:51.621Z,54.73
2023-08-06T11:58:24.383Z,54.45
2023-08-06T12:00:58.575Z,54.54
2023-08-06T12:03:32.572Z,55.39
2023-08-06T12:06:06.074Z,55.58
2023-08-06T12:08:39.257Z,55.31
2023-08-06T12:11:13.474Z,54.67
2023-08-06T12:13:46.420Z,54.04
2023-08-06T12:16:20.049Z,53.28
2023-08-06T12:18:53.118Z,53.22
2023-08-06T12:21:25.852Z,54.64
2023-08-06T12:23:58.559Z,52.79
2023-08-06T12:26:32.617Z,53.02
2023-08-06T12:29:05.481Z,52.75
2023-08-06T12:31:38.515Z,53.60
2023-08-06T12:34:11.700Z,53.21
2023-08-06T12:36:44.721Z,53.76
2023-08-06T12:39:17.482Z,53.91
2023-08-06T12:41:51.756Z,54.02
2023-08-06T12:44:25.299Z,54.10
2023-08-06T12:46:58.343Z,54.90
2023-08-06T12:49:33.241Z,55.87
2023-08-06T12:52:08.582Z,56.99
2023-08-06T12:54:41.581Z,56.33
2023-08-06T12:57:15.911Z,56.58
2023-08-06T12:59:49.314Z,56.91
2023-08-06T13:02:22.280Z,57.95
2023-08-06T13:04:54.870Z,58.22
2023-08-06T13:07:27.778Z,58.07
2023-08-06T13:10:00.433Z,57.86
2023-08-06T13:12:36.199Z,58.49
2023-08-06T13:15:10.850Z,57.72
2023-08-06T13:17:44.533Z,57.75
2023-08-06T13:20:20.269Z,57.30
2023-08-06T13:22:54.818Z,57.64
2023-08-06T13:25:27.950Z,58.36
2023-08-06T13:28:02.191Z,58.82
2023-08-06T13:30:36.654Z,58.51
2023-08-06T13:33:09.493Z,58.38
2023-08-06T13:35:42.292Z,59.52
2023-08-06T13:38:15.075Z,58.34
2023-08-06T13:40:48.069Z,59.10
2023-08-06T13:43:22.213Z,59.47
2023-08-06T13:45:55.016Z,60.05
2023-08-06T13:48:28.021Z,59.39
2023-08-06T13:51:01.089Z,59.43
2023-08-06T13:53:33.896Z,59.88
2023-08-06T13:56:06.839Z,60.17
2023-08-06T13:58:41.042Z,60.64
2023-08-06T14:01:14.494Z,60.34
2023-08-06T14:03:49.033Z,60.22
2023-08-06T14:06:22.129Z,61.09
2023-08-06T14:08:56.169Z,60.96
2023-08-06T14:11:29.497Z,61.44
2023-08-06T14:14:04.644Z,61.39
2023-08-06T14:16:41.817Z,61.74
2023-08-06T14:19:14.551Z,61.16
2023-08-06T14:21:48.410Z,62.12
2023-08-06T14:24:24.264Z,62.04
2023-08-06T14:27:00.619Z,62.17
2023-08-06T14:29:35.148Z,62.60
2023-08-06T14:32:09.283Z,63.00
2023-08-06T14:34:42.190Z,63.13
2023-08-06T14:37:17.042Z,63.28
2023-08-06T14:39:51.432Z,63.40
2023-08-06T14:42:24.284Z,63.61
2023-08-06T14:44:59.000Z,63.38
2023-08-06T14:47:33.425Z,63.96
2023-08-06T14:50:07.184Z,64.05
2023-08-06T14:52:40.827Z,64.15
2023-08-06T14:55:13.842Z,64.20
2023-08-06T14:57:47.189Z,64.74
2023-08-06T15:00:22.798Z,64.70
2023-08-06T15:02:55.755Z,65.09
2023-08-06T15:05:28.745Z,64.84
2023-08-06T15:08:02.173Z,65.49
2023-08-06T15:10:34.984Z,64.95
2023-08-06T15:13:07.968Z,64.66
2023-08-06T15:15:43.834Z,64.81
2023-08-06T15:18:16.652Z,65.53
2023-08-06T15:20:49.852Z,65.27
2023-08-06T15:23:23.586Z,65.06
2023-08-06T15:25:56.887Z,65.61
2023-08-06T15:28:29.924Z,65.53
2023-08-06T15:31:06.962Z,65.31
2023-08-06T15:33:39.960Z,65.61
2023-08-06T15:36:12.741Z,65.14
2023-08-06T15:38:45.694Z,65.29
2023-08-06T15:41:18.707Z,65.31
2023-08-06T15:43:52.005Z,65.50
2023-08-06T15:46:26.462Z,65.67
2023-08-06T15:48:59.352Z,66.09
2023-08-06T15:51:32.606Z,66.10
2023-08-06T15:54:05.622Z,65.77
2023-08-06T15:56:38.604Z,66.05
2023-08-06T15:59:24.411Z,66.02
2023-08-06T16:01:59.421Z,66.25
2023-08-06T16:04:33.103Z,65.75
2023-08-06T16:07:06.284Z,66.43
2023-08-06T16:09:39.122Z,66.30
2023-08-06T16:12:12.030Z,66.61
2023-08-06T16:14:44.730Z,66.71
2023-08-06T16:17:20.623Z,66.59
2023-08-06T16:19:55.484Z,66.25
2023-08-06T16:22:28.368Z,66.90
2023-08-06T16:25:01.206Z,66.24
2023-08-06T16:27:34.264Z,66.33
2023-08-06T16:30:07.828Z,64.89
2023-08-06T16:32:41.983Z,65.55
2023-08-06T16:35:15.974Z,66.23
2023-08-06T16:37:49.598Z,64.90
2023-08-06T16:40:22.682Z,66.13
2023-08-06T16:42:55.487Z,66.66
2023-08-06T16:45:28.258Z,66.23
2023-08-06T16:48:02.644Z,65.74
2023-08-06T16:50:35.619Z,66.07
2023-08-06T16:53:08.677Z,66.86
2023-08-06T16:55:41.893Z,65.15
2023-08-06T16:58:14.841Z,65.83
2023-08-06T17:00:48.083Z,65.44
2023-08-06T17:03:22.408Z,64.50
2023-08-06T17:05:55.514Z,66.75
2023-08-06T17:08:30.981Z,66.38
2023-08-06T17:11:04.328Z,64.95
2023-08-06T17:13:37.352Z,64.92
2023-08-06T17:16:10.161Z,65.91
2023-08-06T17:18:44.985Z,65.12
2023-08-06T17:21:17.881Z,64.53
2023-08-06T17:23:50.841Z,64.86
2023-08-06T17:26:23.525Z,65.01
2023-08-06T17:28:56.380Z,66.95
2023-08-06T17:31:29.519Z,65.48
2023-08-06T17:34:03.868Z,64.97
2023-08-06T17:36:36.818Z,64.53
2023-08-06T17:39:09.627Z,64.84
2023-08-06T17:41:44.466Z,66.06
2023-08-06T17:44:19.004Z,65.24
2023-08-06T17:46:52.037Z,65.35
2023-08-06T17:49:26.148Z,65.44
2023-08-06T17:52:00.767Z,65.81
2023-08-06T17:54:33.757Z,65.94
2023-08-06T17:57:07.269Z,65.33
2023-08-06T17:59:40.213Z,66.20
2023-08-06T18:02:13.366Z,65.92
2023-08-06T18:04:48.732Z,65.90
2023-08-06T18:07:21.901Z,66.26
2023-08-06T18:09:54.891Z,66.08
2023-08-06T18:12:27.944Z,66.03
2023-08-06T18:15:00.738Z,66.20
2023-08-06T18:17:33.719Z,65.84
2023-08-06T18:20:09.024Z,66.17
2023-08-06T18:22:42.065Z,66.09
2023-08-06T18:25:14.838Z,65.97
2023-08-06T18:27:48.190Z,65.76
2023-08-06T18:30:21.229Z,66.11
2023-08-06T18:32:55.701Z,66.13
2023-08-06T18:35:30.579Z,65.63
2023-08-06T18:38:04.348Z,65.61
2023-08-06T18:40:37.773Z,66.15
2023-08-06T18:43:10.763Z,65.33
2023-08-06T18:45:43.490Z,65.91
2023-08-06T18:48:17.116Z,65.50
2023-08-06T18:50:51.679Z,66.05
2023-08-06T18:53:24.821Z,65.74
2023-08-06T18:55:58.813Z,65.78
2023-08-06T18:58:33.100Z,66.08
2023-08-06T19:01:06.172Z,65.96
2023-08-06T19:03:38.981Z,65.82
2023-08-06T19:06:13.356Z,66.15
2023-08-06T19:08:46.304Z,65.90
2023-08-06T19:11:19.128Z,66.14
2023-08-06T19:13:52.086Z,65.21
2023-08-06T19:16:25.515Z,65.81
2023-08-06T19:19:00.438Z,65.86
2023-08-06T19:21:34.791Z,65.85
2023-08-06T19:24:07.966Z,66.32
2023-08-06T19:26:41.323Z,66.23
2023-08-06T19:29:15.803Z,65.94
2023-08-06T19:32:05.202Z,66.51
2023-08-06T19:34:39.069Z,66.50
2023-08-06T19:37:14.096Z,66.83
2023-08-06T19:39:47.086Z,67.10
2023-08-06T19:42:21.690Z,68.07
2023-08-06T19:44:54.712Z,67.50
2023-08-06T19:47:27.958Z,68.83
2023-08-06T19:50:01.510Z,68.15
2023-08-06T19:52:40.039Z,68.01
2023-08-06T19:55:14.656Z,68.52
2023-08-06T19:57:48.195Z,68.50
2023-08-06T20:00:21.738Z,67.83
2023-08-06T20:02:55.169Z,69.02
2023-08-06T20:05:29.105Z,68.74
2023-08-06T20:08:03.902Z,68.83
2023-08-06T20:10:36.847Z,68.97
2023-08-06T20:13:10.239Z,69.49
2023-08-06T20:15:43.536Z,68.93
2023-08-06T20:18:18.567Z,68.74
2023-08-06T20:20:51.842Z,69.22
2023-08-06T20:23:27.913Z,69.04
2023-08-06T20:26:01.065Z,69.50
2023-08-06T20:28:33.972Z,68.75
2023-08-06T20:31:08.373Z,69.95
2023-08-06T20:33:41.454Z,69.16
2023-08-06T20:36:14.194Z,69.02
2023-08-06T20:38:48.714Z,69.63
2023-08-06T20:41:21.868Z,68.71
2023-08-06T20:43:54.630Z,68.98
2023-08-06T20:46:27.529Z,68.81
2023-08-06T20:49:00.433Z,69.04
2023-08-06T20:51:33.379Z,69.19
2023-08-06T20:54:07.753Z,69.42
2023-08-06T20:56:41.030Z,68.94
2023-08-06T20:59:14.021Z,69.88
2023-08-06T21:01:47.230Z,69.07
2023-08-06T21:04:20.325Z,69.35
2023-08-06T21:06:53.125Z,69.51
2023-08-06T21:09:27.448Z,69.68
2023-08-06T21:12:00.460Z,69.38
2023-08-06T21:14:33.187Z,69.20
2023-08-06T21:17:06.888Z,69.35
2023-08-06T21:19:39.821Z,70.08
2023-08-06T21:22:12.913Z,69.03
2023-08-06T21:24:47.262Z,69.80
2023-08-06T21:27:20.136Z,69.24
2023-08-06T21:29:53.210Z,69.58
2023-08-06T21:32:26.394Z,69.24
2023-08-06T21:35:00.757Z,69.50
2023-08-06T21:37:34.064Z,69.67
2023-08-06T21:40:09.874Z,70.08
2023-08-06T21:42:45.932Z,70.50
2023-08-06T21:45:19.067Z,70.20
2023-08-06T21:47:52.080Z,69.96
2023-08-06T21:50:25.226Z,69.85
2023-08-06T21:52:58.542Z,70.48
2023-08-06T21:55:35.980Z,70.45
2023-08-06T21:58:08.962Z,69.64
2023-08-06T22:00:41.866Z,69.37
2023-08-06T22:03:15.576Z,69.84
2023-08-06T22:05:48.984Z,69.69
2023-08-06T22:08:22.599Z,69.42
2023-08-06T22:10:57.973Z,69.67
2023-08-06T22:13:31.314Z,69.32
2023-08-06T22:16:05.708Z,69.94
2023-08-06T22:18:38.729Z,69.66
2023-08-06T22:21:11.437Z,69.07
2023-08-06T22:23:44.777Z,69.83
2023-08-06T22:26:18.986Z,69.99
2023-08-06T22:29:01.084Z,70.06
2023-08-06T22:31:34.849Z,70.13
2023-08-06T22:34:07.823Z,69.84
2023-08-06T22:36:40.810Z,70.21
2023-08-06T22:39:13.751Z,69.54
2023-08-06T22:41:47.985Z,69.58
2023-08-06T22:44:20.892Z,69.91
2023-08-06T22:46:53.875Z,69.59
2023-08-06T22:49:26.988Z,69.69
2023-08-06T22:52:00.269Z,70.32
2023-08-06T22:54:33.407Z,70.19
2023-08-06T22:57:10.629Z,70.75
2023-08-06T22:59:43.612Z,70.42
2023-08-06T23:02:16.618Z,70.29
2023-08-06T23:04:49.618Z,70.80
2023-08-06T23:07:22.884Z,71.22
2023-08-06T23:09:55.861Z,70.55
2023-08-06T23:12:30.022Z,70.97
2023-08-06T23:15:02.987Z,70.06
2023-08-06T23:17:35.911Z,70.85
2023-08-06T23:20:10.182Z,70.55
2023-08-06T23:22:43.587Z,70.80
2023-08-06T23:25:16.568Z,70.14
2023-08-06T23:27:50.753Z,69.96
2023-08-06T23:30:23.843Z,70.28
2023-08-06T23:32:56.927Z,70.18
2023-08-06T23:35:30.097Z,70.70
2023-08-06T23:38:03.227Z,70.54
2023-08-06T23:40:36.270Z,70.00
2023-08-06T23:43:11.225Z,70.38
2023-08-06T23:45:44.305Z,69.70
2023-08-06T23:48:17.708Z,70.02
2023-08-06T23:50:50.670Z,69.31
2023-08-06T23:53:23.614Z,69.25
2023-08-06T23:55:56.369Z,69.38
2023-08-06T23:58:30.699Z,69.88
